createdAt,value
2022-12-31T00:02:36.795Z,999.89
2022-12-31T00:05:36.647Z,999.88
2022-12-31T00:08:36.659Z,999.95
2022-12-31T00:11:36.647Z,999.94
2022-12-31T00:14:36.659Z,999.97
2022-12-31T00:17:36.650Z,999.91
2022-12-31T00:20:36.653Z,999.88
2022-12-31T00:23:36.646Z,999.9
2022-12-31T00:26:36.647Z,999.92
2022-12-31T00:29:36.644Z,999.9
2022-12-31T00:32:36.660Z,999.85
2022-12-31T00:35:36.653Z,999.85
2022-12-31T00:38:36.643Z,999.82
2022-12-31T00:41:36.657Z,999.87
2022-12-31T00:44:36.643Z,999.83
2022-12-31T00:47:36.648Z,999.85
2022-12-31T00:50:36.658Z,999.85
2022-12-31T00:53:36.646Z,999.77
2022-12-31T00:56:36.647Z,999.85
2022-12-31T00:59:36.654Z,999.96
2022-12-31T01:02:36.745Z,999.98
2022-12-31T01:05:36.677Z,1000.04
2022-12-31T01:08:36.684Z,999.98
2022-12-31T01:11:36.682Z,1000.03
2022-12-31T01:14:36.678Z,1000.07
2022-12-31T01:17:36.673Z,1000.1
2022-12-31T01:20:36.684Z,1000.1
2022-12-31T01:23:36.680Z,1000.1
2022-12-31T01:26:36.674Z,1000.18
2022-12-31T01:29:36.671Z,1000.25
2022-12-31T01:32:36.729Z,1000.19
2022-12-31T01:35:36.688Z,1000.19
2022-12-31T01:38:36.686Z,1000.14
2022-12-31T01:41:36.693Z,1000.14
2022-12-31T01:44:36.688Z,1000.15
2022-12-31T01:47:36.690Z,1000.16
2022-12-31T01:50:36.693Z,1000.08
2022-12-31T01:53:40.684Z,1000.03
2022-12-31T01:56:36.689Z,1000.06
2022-12-31T01:59:36.693Z,1000.01
2022-12-31T02:02:36.904Z,1000.06
2022-12-31T02:05:36.693Z,1000.01
2022-12-31T02:08:41.744Z,1000.02
2022-12-31T02:11:36.699Z,1000.07
2022-12-31T02:14:36.700Z,1000.11
2022-12-31T02:17:36.694Z,1000.02
2022-12-31T02:20:36.694Z,1000.01
2022-12-31T02:23:36.696Z,999.98
2022-12-31T02:26:36.693Z,999.92
2022-12-31T02:29:36.698Z,999.96
2022-12-31T02:32:36.697Z,999.88
2022-12-31T02:35:36.689Z,999.94
2022-12-31T02:38:36.698Z,1000.02
2022-12-31T02:41:36.751Z,1000.03
2022-12-31T02:44:36.704Z,999.98
2022-12-31T02:47:36.701Z,999.91
2022-12-31T02:50:36.717Z,999.99
2022-12-31T02:53:36.695Z,999.99
2022-12-31T02:56:36.696Z,1000.06
2022-12-31T02:59:36.698Z,1000.17
2022-12-31T03:02:36.706Z,1000.18
2022-12-31T03:05:36.756Z,1000.23
2022-12-31T03:08:36.698Z,1000.12
2022-12-31T03:11:36.702Z,1000.12
2022-12-31T03:14:36.700Z,1000.16
2022-12-31T03:17:36.694Z,1000.12
2022-12-31T03:20:36.690Z,1000.13
2022-12-31T03:23:36.701Z,1000.13
2022-12-31T03:26:36.696Z,1000.23
2022-12-31T03:29:36.701Z,1000.22
2022-12-31T03:32:36.720Z,1000.24
2022-12-31T03:35:36.695Z,1000.33
2022-12-31T03:38:36.698Z,1000.33
2022-12-31T03:41:36.703Z,1000.32
2022-12-31T03:44:36.698Z,1000.38
2022-12-31T03:47:36.705Z,1000.4
2022-12-31T03:50:36.700Z,1000.4
2022-12-31T03:53:36.699Z,1000.45
2022-12-31T03:56:36.704Z,1000.5
2022-12-31T03:59:36.703Z,1000.55
2022-12-31T04:02:36.816Z,1000.56
2022-12-31T04:05:36.738Z,1000.6
2022-12-31T04:08:36.704Z,1000.67
2022-12-31T04:11:36.707Z,1000.73
2022-12-31T04:14:36.707Z,1000.74
2022-12-31T04:17:36.713Z,1000.78
2022-12-31T04:20:36.708Z,1000.73
2022-12-31T04:23:36.710Z,1000.77
2022-12-31T04:26:36.717Z,1000.81
2022-12-31T04:29:36.711Z,1000.83
2022-12-31T04:32:36.717Z,1000.84
2022-12-31T04:35:36.762Z,1000.82
2022-12-31T04:38:36.705Z,1000.86
2022-12-31T04:41:36.716Z,1000.88
2022-12-31T04:44:36.704Z,1000.84
2022-12-31T04:47:36.709Z,1000.86
2022-12-31T04:50:36.709Z,1000.84
2022-12-31T04:53:36.714Z,1000.81
2022-12-31T04:56:36.814Z,1000.73
2022-12-31T04:59:36.718Z,1000.72
2022-12-31T05:02:36.921Z,1000.82
2022-12-31T05:05:36.756Z,1000.86
2022-12-31T05:08:36.709Z,1000.91
2022-12-31T05:11:36.713Z,1001.02
2022-12-31T05:14:36.718Z,1001.09
2022-12-31T05:17:36.710Z,1001.05
2022-12-31T05:20:36.714Z,1001.12
2022-12-31T05:23:36.715Z,1001.1
2022-12-31T05:26:36.729Z,1001.16
2022-12-31T05:29:36.712Z,1001.11
2022-12-31T05:32:36.714Z,1001.15
2022-12-31T05:35:36.743Z,1001.11
2022-12-31T05:38:36.710Z,1001.13
2022-12-31T05:41:36.716Z,1001.02
2022-12-31T05:44:36.722Z,1001.01
2022-12-31T05:47:36.714Z,1001.02
2022-12-31T05:50:36.722Z,1001
2022-12-31T05:53:36.713Z,1001.07
2022-12-31T05:56:36.714Z,1001.09
2022-12-31T05:59:36.722Z,1001.08
2022-12-31T06:02:36.734Z,1001.13
2022-12-31T06:05:36.789Z,1001.11
2022-12-31T06:08:36.717Z,1001.21
2022-12-31T06:11:36.714Z,1001.34
2022-12-31T06:14:39.614Z,1001.4
2022-12-31T06:17:36.760Z,1001.43
2022-12-31T06:20:36.770Z,1001.47
2022-12-31T06:23:36.753Z,1001.49
2022-12-31T06:26:36.756Z,1001.52
2022-12-31T06:29:36.764Z,1001.55
2022-12-31T06:32:36.764Z,1001.57
2022-12-31T06:35:36.789Z,1001.67
2022-12-31T06:38:36.773Z,1001.78
2022-12-31T06:41:36.761Z,1001.78
2022-12-31T06:44:36.761Z,1001.87
2022-12-31T06:47:36.767Z,1001.93
2022-12-31T06:50:36.759Z,1001.95
2022-12-31T06:53:36.761Z,1001.9
2022-12-31T06:56:36.762Z,1001.96
2022-12-31T06:59:36.765Z,1001.93
2022-12-31T07:02:36.855Z,1001.96
2022-12-31T07:05:36.794Z,1001.88
2022-12-31T07:08:36.752Z,1001.86
2022-12-31T07:11:36.771Z,1001.85
2022-12-31T07:14:36.770Z,1001.9
2022-12-31T07:17:36.761Z,1001.97
2022-12-31T07:20:36.768Z,1001.99
2022-12-31T07:23:36.761Z,1001.99
2022-12-31T07:26:36.771Z,1002.04
2022-12-31T07:29:36.762Z,1002.02
2022-12-31T07:32:36.773Z,1002
2022-12-31T07:35:36.826Z,1002.03
2022-12-31T07:38:36.762Z,1002.04
2022-12-31T07:41:36.801Z,1002.07
2022-12-31T07:44:36.772Z,1002.16
2022-12-31T07:47:36.771Z,1002.15
2022-12-31T07:50:36.773Z,1002.27
2022-12-31T07:53:36.771Z,1002.25
2022-12-31T07:56:36.769Z,1002.23
2022-12-31T07:59:36.770Z,1002.32
2022-12-31T08:02:36.838Z,1002.45
2022-12-31T08:05:36.831Z,1002.56
2022-12-31T08:08:36.777Z,1002.54
2022-12-31T08:11:36.768Z,1002.55
2022-12-31T08:14:36.767Z,1002.57
2022-12-31T08:17:36.770Z,1002.65
2022-12-31T08:20:36.771Z,1002.71
2022-12-31T08:23:36.772Z,1002.73
2022-12-31T08:26:36.767Z,1002.83
2022-12-31T08:29:36.773Z,1002.91
2022-12-31T08:32:36.771Z,1002.88
2022-12-31T08:35:36.814Z,1002.87
2022-12-31T08:38:36.775Z,1002.87
2022-12-31T08:41:42.430Z,1002.91
2022-12-31T08:44:36.774Z,1002.92
2022-12-31T08:47:38.540Z,1002.93
2022-12-31T08:50:36.770Z,1002.86
2022-12-31T08:53:36.767Z,1002.9
2022-12-31T08:56:36.768Z,1002.85
2022-12-31T08:59:36.767Z,1002.81
2022-12-31T09:02:36.777Z,1002.86
2022-12-31T09:05:36.809Z,1002.93
2022-12-31T09:08:36.814Z,1002.93
2022-12-31T09:11:36.777Z,1002.94
2022-12-31T09:14:36.776Z,1003.05
2022-12-31T09:17:36.771Z,1003.02
2022-12-31T09:20:44.320Z,1003.04
2022-12-31T09:23:36.779Z,1003.07
2022-12-31T09:26:36.769Z,1003.15
2022-12-31T09:29:36.783Z,1003.2
2022-12-31T09:32:36.783Z,1003.18
2022-12-31T09:35:36.845Z,1003.26
2022-12-31T09:38:36.781Z,1003.32
2022-12-31T09:41:36.785Z,1003.34
2022-12-31T09:44:36.780Z,1003.4
2022-12-31T09:47:36.785Z,1003.43
2022-12-31T09:50:36.781Z,1003.48
2022-12-31T09:53:36.780Z,1003.42
2022-12-31T09:56:36.784Z,1003.4
2022-12-31T09:59:36.782Z,1003.37
2022-12-31T10:02:36.858Z,1003.36
2022-12-31T10:05:36.834Z,1003.38
2022-12-31T10:08:36.782Z,1003.34
2022-12-31T10:11:36.787Z,1003.4
2022-12-31T10:14:38.113Z,1003.4
2022-12-31T10:17:36.777Z,1003.43
2022-12-31T10:20:41.678Z,1003.43
2022-12-31T10:23:36.787Z,1003.37
2022-12-31T10:26:36.857Z,1003.44
2022-12-31T10:29:36.852Z,1003.41
2022-12-31T10:32:36.804Z,1003.39
2022-12-31T10:35:36.872Z,1003.4
2022-12-31T10:38:36.790Z,1003.4
2022-12-31T10:41:36.820Z,1003.47
2022-12-31T10:44:36.792Z,1003.51
2022-12-31T10:47:36.796Z,1003.48
2022-12-31T10:50:36.799Z,1003.46
2022-12-31T10:53:36.795Z,1003.44
2022-12-31T10:56:36.799Z,1003.52
2022-12-31T10:59:36.792Z,1003.5
2022-12-31T11:02:36.991Z,1003.42
2022-12-31T11:05:36.858Z,1003.47
2022-12-31T11:08:36.880Z,1003.56
2022-12-31T11:11:37.336Z,1003.58
2022-12-31T11:14:37.333Z,1003.58
2022-12-31T11:17:37.349Z,1003.62
2022-12-31T11:20:37.332Z,1003.69
2022-12-31T11:23:37.361Z,1003.72
2022-12-31T11:26:37.346Z,1003.74
2022-12-31T11:29:37.350Z,1003.74
2022-12-31T11:32:37.348Z,1003.76
2022-12-31T11:35:37.349Z,1003.76
2022-12-31T11:38:37.351Z,1003.7
2022-12-31T11:41:37.351Z,1003.73
2022-12-31T11:44:37.343Z,1003.69
2022-12-31T11:47:44.692Z,1003.66
2022-12-31T11:50:37.349Z,1003.67
2022-12-31T11:53:37.349Z,1003.64
2022-12-31T11:56:37.346Z,1003.6
2022-12-31T11:59:37.359Z,1003.57
2022-12-31T12:02:37.450Z,1003.49
2022-12-31T12:05:37.353Z,1003.47
2022-12-31T12:08:37.347Z,1003.5
2022-12-31T12:11:37.356Z,1003.48
2022-12-31T12:14:37.352Z,1003.37
2022-12-31T12:17:37.355Z,1003.39
2022-12-31T12:20:37.351Z,1003.32
2022-12-31T12:23:37.343Z,1003.26
2022-12-31T12:26:37.358Z,1003.24
2022-12-31T12:29:37.358Z,1003.26
2022-12-31T12:32:37.354Z,1003.23
2022-12-31T12:35:37.383Z,1003.26
2022-12-31T12:38:37.363Z,1003.27
2022-12-31T12:41:37.372Z,1003.23
2022-12-31T12:44:37.348Z,1003.2
2022-12-31T12:47:37.367Z,1003.26
2022-12-31T12:50:37.363Z,1003.19
2022-12-31T12:53:37.356Z,1003.23
2022-12-31T12:56:37.362Z,1003.15
2022-12-31T12:59:37.363Z,1003.23
2022-12-31T13:02:37.450Z,1003.2
2022-12-31T13:05:37.379Z,1003.21
2022-12-31T13:08:37.368Z,1003.2
2022-12-31T13:11:37.359Z,1003.22
2022-12-31T13:14:37.375Z,1003.28
2022-12-31T13:17:37.356Z,1003.21
2022-12-31T13:20:37.360Z,1003.19
2022-12-31T13:23:39.766Z,1003.22
2022-12-31T13:26:37.354Z,1003.17
2022-12-31T13:29:37.364Z,1003.21
2022-12-31T13:32:37.363Z,1003.2
2022-12-31T13:35:37.371Z,1003.25
2022-12-31T13:38:37.361Z,1003.14
2022-12-31T13:41:37.360Z,1003.01
2022-12-31T13:44:37.367Z,1003.03
2022-12-31T13:47:37.360Z,1003.02
2022-12-31T13:50:37.359Z,1002.97
2022-12-31T13:53:37.361Z,1002.89
2022-12-31T13:56:37.369Z,1002.97
2022-12-31T13:59:37.360Z,1002.97
2022-12-31T14:02:37.457Z,1002.94
2022-12-31T14:05:37.379Z,1002.85
2022-12-31T14:08:37.367Z,1002.92
2022-12-31T14:11:37.361Z,1002.95
2022-12-31T14:14:37.392Z,1003.09
2022-12-31T14:17:37.365Z,1003.23
2022-12-31T14:20:37.380Z,1003.31
2022-12-31T14:23:37.359Z,1003.2
2022-12-31T14:26:37.381Z,1003.19
2022-12-31T14:29:37.366Z,1003.23
2022-12-31T14:32:37.365Z,1003.36
2022-12-31T14:35:37.392Z,1003.45
2022-12-31T14:38:37.366Z,1003.41
2022-12-31T14:41:37.367Z,1003.38
2022-12-31T14:44:37.374Z,1003.35
2022-12-31T14:47:37.361Z,1003.31
2022-12-31T14:50:37.381Z,1003.31
2022-12-31T14:53:37.368Z,1003.41
2022-12-31T14:56:37.368Z,1003.5
2022-12-31T14:59:40.380Z,1003.42
2022-12-31T15:02:37.577Z,1003.45
2022-12-31T15:05:37.477Z,1003.52
2022-12-31T15:08:37.402Z,1003.61
2022-12-31T15:11:37.402Z,1003.6
2022-12-31T15:14:38.012Z,1003.63
2022-12-31T15:17:37.401Z,1003.64
2022-12-31T15:20:37.412Z,1003.63
2022-12-31T15:23:37.405Z,1003.66
2022-12-31T15:26:37.419Z,1003.62
2022-12-31T15:29:37.395Z,1003.62
2022-12-31T15:32:37.418Z,1003.63
2022-12-31T15:35:37.432Z,1003.64
2022-12-31T15:38:37.423Z,1003.66
2022-12-31T15:41:37.415Z,1003.68
2022-12-31T15:44:37.418Z,1003.64
2022-12-31T15:47:37.431Z,1003.65
2022-12-31T15:50:37.419Z,1003.61
2022-12-31T15:53:37.413Z,1003.63
2022-12-31T15:56:37.408Z,1003.7
2022-12-31T15:59:37.409Z,1003.78
2022-12-31T16:02:37.523Z,1003.69
2022-12-31T16:05:37.444Z,1003.73
2022-12-31T16:08:37.435Z,1003.79
2022-12-31T16:11:37.411Z,1003.79
2022-12-31T16:14:37.424Z,1003.87
2022-12-31T16:17:37.413Z,1003.8
2022-12-31T16:20:37.409Z,1003.74
2022-12-31T16:23:40.479Z,1003.7
2022-12-31T16:26:37.413Z,1003.76
2022-12-31T16:29:37.415Z,1003.71
2022-12-31T16:32:37.414Z,1003.75
2022-12-31T16:35:37.482Z,1003.73
2022-12-31T16:38:37.428Z,1003.83
2022-12-31T16:41:37.423Z,1003.85
2022-12-31T16:44:37.414Z,1003.85
2022-12-31T16:47:37.464Z,1003.83
2022-12-31T16:50:37.425Z,1003.88
2022-12-31T16:53:37.414Z,1003.83
2022-12-31T16:56:37.429Z,1003.83
2022-12-31T16:59:37.427Z,1003.84
2022-12-31T17:02:37.770Z,1003.81
2022-12-31T17:05:37.443Z,1003.82
2022-12-31T17:08:37.424Z,1003.86
2022-12-31T17:11:37.427Z,1003.85
2022-12-31T17:14:37.427Z,1003.87
2022-12-31T17:17:37.609Z,1003.93
2022-12-31T17:20:37.445Z,1003.82
2022-12-31T17:23:37.441Z,1003.83
2022-12-31T17:26:37.458Z,1003.92
2022-12-31T17:29:37.438Z,1003.85
2022-12-31T17:32:37.437Z,1003.86
2022-12-31T17:35:37.470Z,1003.83
2022-12-31T17:38:37.448Z,1003.85
2022-12-31T17:41:37.449Z,1003.85
2022-12-31T17:44:37.448Z,1003.83
2022-12-31T17:47:37.449Z,1003.87
2022-12-31T17:50:37.450Z,1003.83
2022-12-31T17:53:37.514Z,1003.84
2022-12-31T17:56:37.472Z,1003.88
2022-12-31T17:59:37.448Z,1003.82
2022-12-31T18:02:37.649Z,1003.87
2022-12-31T18:05:37.466Z,1003.87
2022-12-31T18:08:37.457Z,1003.95
2022-12-31T18:11:37.472Z,1003.97
2022-12-31T18:14:37.486Z,1003.98
2022-12-31T18:17:37.465Z,1004.03
2022-12-31T18:20:37.471Z,1004.06
2022-12-31T18:23:37.468Z,1004.09
2022-12-31T18:26:37.464Z,1004.15
2022-12-31T18:29:37.468Z,1004.1
2022-12-31T18:32:37.464Z,1004.15
2022-12-31T18:36:08.036Z,1004.23
2022-12-31T18:38:37.490Z,1004.31
2022-12-31T18:41:37.479Z,1004.35
2022-12-31T18:44:37.483Z,1004.36
2022-12-31T18:47:37.892Z,1004.39
2022-12-31T18:50:37.476Z,1004.45
2022-12-31T18:53:37.475Z,1004.44
2022-12-31T18:56:40.594Z,1004.48
2022-12-31T18:59:37.501Z,1004.47
2022-12-31T19:02:37.510Z,1004.51
2022-12-31T19:05:37.477Z,1004.52
2022-12-31T19:08:37.482Z,1004.53
2022-12-31T19:11:37.478Z,1004.53
2022-12-31T19:14:37.479Z,1004.56
2022-12-31T19:17:37.481Z,1004.49
2022-12-31T19:20:37.481Z,1004.52
2022-12-31T19:23:37.475Z,1004.5
2022-12-31T19:26:43.114Z,1004.52
2022-12-31T19:29:37.488Z,1004.49
2022-12-31T19:32:37.478Z,1004.53
2022-12-31T19:35:37.487Z,1004.51
2022-12-31T19:38:37.473Z,1004.56
2022-12-31T19:41:37.484Z,1004.59
2022-12-31T19:44:37.471Z,1004.6
2022-12-31T19:47:37.490Z,1004.55
2022-12-31T19:50:37.486Z,1004.54
2022-12-31T19:53:37.479Z,1004.54
2022-12-31T19:56:37.485Z,1004.57
2022-12-31T19:59:37.478Z,1004.54
2022-12-31T20:02:37.593Z,1004.54
2022-12-31T20:05:37.504Z,1004.53
2022-12-31T20:08:37.485Z,1004.53
2022-12-31T20:11:37.493Z,1004.57
2022-12-31T20:14:37.492Z,1004.68
2022-12-31T20:17:37.493Z,1004.74
2022-12-31T20:20:37.496Z,1004.72
2022-12-31T20:23:37.501Z,1004.72
2022-12-31T20:26:37.494Z,1004.76
2022-12-31T20:29:37.496Z,1004.84
2022-12-31T20:32:37.502Z,1004.83
2022-12-31T20:35:37.493Z,1004.81
2022-12-31T20:38:37.483Z,1004.75
2022-12-31T20:41:37.495Z,1004.84
2022-12-31T20:44:37.496Z,1004.84
2022-12-31T20:47:37.489Z,1004.86
2022-12-31T20:50:37.493Z,1004.84
2022-12-31T20:53:37.500Z,1004.79
2022-12-31T20:56:37.491Z,1004.72
2022-12-31T20:59:37.499Z,1004.78
2022-12-31T21:02:41.873Z,1004.84
2022-12-31T21:05:37.667Z,1004.87
2022-12-31T21:08:37.515Z,1004.89
2022-12-31T21:11:37.516Z,1004.88
2022-12-31T21:14:42.876Z,1004.86
2022-12-31T21:17:37.498Z,1004.81
2022-12-31T21:20:37.503Z,1004.88
2022-12-31T21:23:37.499Z,1004.9
2022-12-31T21:26:37.498Z,1004.99
2022-12-31T21:29:50.505Z,1005.06
2022-12-31T21:32:37.504Z,1005.11
2022-12-31T21:35:43.676Z,1005.07
2022-12-31T21:38:37.508Z,1005.13
2022-12-31T21:41:37.510Z,1005.18
2022-12-31T21:44:37.506Z,1005.19
2022-12-31T21:47:41.171Z,1005.23
2022-12-31T21:50:37.514Z,1005.28
2022-12-31T21:53:37.755Z,1005.29
2022-12-31T21:56:37.516Z,1005.33
2022-12-31T21:59:43.014Z,1005.34
2022-12-31T22:02:37.671Z,1005.31
2022-12-31T22:05:37.589Z,1005.33
2022-12-31T22:08:37.558Z,1005.38
2022-12-31T22:11:37.579Z,1005.42
2022-12-31T22:14:37.579Z,1005.39
2022-12-31T22:17:37.571Z,1005.39
2022-12-31T22:20:37.557Z,1005.37
2022-12-31T22:23:37.550Z,1005.43
2022-12-31T22:26:40.417Z,1005.48
2022-12-31T22:29:37.564Z,1005.53
2022-12-31T22:32:37.557Z,1005.58
2022-12-31T22:35:37.586Z,1005.65
2022-12-31T22:38:37.561Z,1005.63
2022-12-31T22:41:37.553Z,1005.65
2022-12-31T22:44:37.558Z,1005.71
2022-12-31T22:47:37.562Z,1005.71
2022-12-31T22:50:37.559Z,1005.75
2022-12-31T22:53:37.568Z,1005.74
2022-12-31T22:56:37.567Z,1005.75
2022-12-31T22:59:37.562Z,1005.7
2022-12-31T23:02:41.624Z,1005.72
2022-12-31T23:05:37.569Z,1005.76
2022-12-31T23:08:37.564Z,1005.77
2022-12-31T23:11:37.575Z,1005.77
2022-12-31T23:14:37.567Z,1005.82
2022-12-31T23:17:37.567Z,1005.86
2022-12-31T23:20:37.574Z,1005.88
2022-12-31T23:23:37.583Z,1005.91
2022-12-31T23:26:37.573Z,1005.88
2022-12-31T23:29:42.087Z,1005.87
2022-12-31T23:32:37.574Z,1005.88
2022-12-31T23:35:37.580Z,1005.91
2022-12-31T23:38:37.586Z,1005.95
2022-12-31T23:41:37.568Z,1005.98
2022-12-31T23:44:37.570Z,1006
2022-12-31T23:47:37.572Z,1006
2022-12-31T23:50:37.594Z,1006.05
2022-12-31T23:53:37.572Z,1006.07
2022-12-31T23:56:37.565Z,1006.1
2022-12-31T23:59:37.569Z,1006.13
